Time;durP1;ratioP1;P1;durP2;ratioP2;P2;SDS_P1;SDS_P2;PMS_P1;PMS_P2;Temp;Humidity;BMP_temperature;BMP_pressure;BME280_temperature;BME280_humidity;BME280_pressure;Samples;Min_cycle;Max_cycle;Signal;HPM_P1;HPM_P2
2023/10/15 00:00:46;;;;;;;25.57;12.33;;;;;;;13.68;73.51;94589.09;5154482;27;20603;-69
2023/10/15 00:03:11;;;;;;;20.67;11.33;;;;;;;13.62;73.58;94586.63;5154448;27;20210;-69
2023/10/15 00:05:36;;;;;;;19.17;10.47;;;;;;;13.59;73.57;94585.22;5154085;27;20248;-69
2023/10/15 00:08:02;;;;;;;22.63;11.00;;;;;;;13.59;74.01;94587.88;5154496;27;20179;-69
2023/10/15 00:10:30;;;;;;;19.53;10.27;;;;;;;13.58;73.85;94581.78;5154245;27;20214;-69
2023/10/15 00:12:57;;;;;;;24.98;10.45;;;;;;;13.56;73.82;94575.16;5154515;27;20172;-69
2023/10/15 00:15:25;;;;;;;19.23;9.77;;;;;;;13.55;73.77;94571.69;5154491;27;20959;-69
2023/10/15 00:17:57;;;;;;;22.47;11.63;;;;;;;13.50;73.97;94568.94;5154230;27;20567;-69
2023/10/15 00:20:31;;;;;;;13.80;7.27;;;;;;;13.47;74.14;94566.78;5153995;27;20659;-69
2023/10/15 00:22:57;;;;;;;18.80;9.80;;;;;;;13.42;74.03;94557.94;5154020;27;20257;-69
2023/10/15 00:25:23;;;;;;;14.67;9.97;;;;;;;13.45;74.27;94570.69;5154079;27;20175;-69
2023/10/15 00:27:52;;;;;;;20.03;9.33;;;;;;;13.43;74.23;94568.28;5154077;27;20171;-69
2023/10/15 00:30:19;;;;;;;16.17;8.60;;;;;;;13.34;74.34;94564.41;5153782;27;20191;-69
2023/10/15 00:32:52;;;;;;;15.27;8.53;;;;;;;13.35;74.49;94575.78;5153850;27;20232;-69
2023/10/15 00:35:21;;;;;;;15.20;8.37;;;;;;;13.32;74.53;94571.75;5153634;27;20601;-69
2023/10/15 00:37:54;;;;;;;18.50;8.83;;;;;;;13.31;74.67;94577.31;5153864;27;20183;-68
2023/10/15 00:40:21;;;;;;;11.13;7.40;;;;;;;13.26;74.75;94567.41;5134574;27;20171;-68
2023/10/15 00:42:46;;;;;;;14.43;7.70;;;;;;;13.26;75.05;94570.06;5153487;27;20199;-69
2023/10/15 00:45:19;;;;;;;13.73;8.33;;;;;;;13.26;75.04;94567.41;5153670;27;20632;-68
2023/10/15 00:48:01;;;;;;;14.37;7.43;;;;;;;13.23;74.82;94559.16;5153387;27;20189;-68
2023/10/15 00:50:31;;;;;;;15.73;7.90;;;;;;;13.21;74.79;94560.19;5153558;27;20171;-69
2023/10/15 00:53:03;;;;;;;12.13;6.30;;;;;;;13.18;74.79;94560.66;5153564;27;20187;-68
2023/10/15 00:55:28;;;;;;;14.60;5.87;;;;;;;13.16;75.54;94554.00;5153275;27;21680;-68
2023/10/15 00:57:56;;;;;;;10.17;6.90;;;;;;;13.17;75.28;94566.97;5153325;27;20659;-68
2023/10/15 01:03:30;;;;;;;11.50;6.23;;;;;;;13.13;75.27;94563.22;5069158;28;20335;-67
2023/10/15 01:06:00;;;;;;;21.07;11.00;;;;;;;13.12;75.10;94551.00;5120742;27;20186;-67
2023/10/15 01:08:34;;;;;;;44.17;24.73;;;;;;;13.12;75.13;94558.13;5132535;27;20173;-67
2023/10/15 01:11:09;;;;;;;60.27;31.17;;;;;;;13.09;75.54;94553.28;5132482;27;20185;-68
2023/10/15 01:13:35;;;;;;;59.73;32.20;;;;;;;13.06;75.83;94551.91;5132251;27;20186;-68
2023/10/15 01:16:03;;;;;;;60.70;33.00;;;;;;;13.06;75.54;94551.91;5113833;27;20223;-68
2023/10/15 01:18:29;;;;;;;32.67;18.03;;;;;;;13.03;75.57;94552.41;5132250;27;20648;-68
2023/10/15 01:20:55;;;;;;;25.40;11.70;;;;;;;12.94;75.78;94537.13;5132132;27;20184;-68
2023/10/15 01:23:43;;;;;;;26.47;14.80;;;;;;;12.89;75.73;94526.44;5132144;27;20251;-68
2023/10/15 01:26:23;;;;;;;33.83;18.97;;;;;;;12.95;76.08;94546.66;5131966;27;20168;-68
2023/10/15 01:28:51;;;;;;;32.00;18.17;;;;;;;12.97;75.85;94555.16;5132176;27;20175;-68
2023/10/15 01:31:17;;;;;;;18.43;9.03;;;;;;;12.90;76.04;94552.63;5132073;27;20738;-68
2023/10/15 01:33:49;;;;;;;15.03;8.63;;;;;;;12.84;76.49;94548.28;5131862;27;20255;-68
2023/10/15 01:36:18;;;;;;;16.83;10.43;;;;;;;12.83;76.37;94563.34;5132089;27;20792;-68
2023/10/15 01:38:44;;;;;;;20.23;9.43;;;;;;;12.82;76.31;94563.56;5131695;27;20180;-68
2023/10/15 01:41:19;;;;;;;24.53;12.73;;;;;;;12.76;76.90;94567.94;5131307;27;20172;-68
2023/10/15 01:43:49;;;;;;;59.37;27.17;;;;;;;12.60;77.11;94534.31;5131331;27;20652;-68
2023/10/15 01:46:39;;;;;;;28.30;13.20;;;;;;;12.77;76.48;94558.97;5131364;27;20257;-68
2023/10/15 01:49:06;;;;;;;28.80;12.20;;;;;;;12.74;76.64;94542.78;5131528;27;20176;-68
2023/10/15 01:51:39;;;;;;;35.27;17.47;;;;;;;12.53;76.68;94530.19;5130556;27;20176;-68
2023/10/15 01:54:10;;;;;;;40.97;18.53;;;;;;;12.64;77.00;94547.84;5131648;27;20187;-68
2023/10/15 01:56:39;;;;;;;30.90;14.53;;;;;;;12.62;77.11;94555.22;5131276;27;20199;-68
2023/10/15 01:59:08;;;;;;;40.90;16.70;;;;;;;12.59;77.33;94556.47;5131323;27;20324;-69
2023/10/15 02:01:40;;;;;;;23.40;13.43;;;;;;;12.55;77.29;94544.75;5131575;27;20225;-68
2023/10/15 02:04:15;;;;;;;32.30;16.77;;;;;;;12.53;77.75;94549.47;5131394;27;20245;-68
2023/10/15 02:06:43;;;;;;;33.93;17.67;;;;;;;12.53;77.49;94548.66;5131547;27;20263;-68
2023/10/15 02:09:12;;;;;;;39.80;19.33;;;;;;;12.51;77.43;94548.09;5131414;27;20214;-68
2023/10/15 02:11:47;;;;;;;46.00;22.37;;;;;;;12.49;77.82;94550.94;5131273;27;20184;-68
2023/10/15 02:14:20;;;;;;;44.87;22.87;;;;;;;12.46;77.82;94554.03;5131396;27;20549;-68
2023/10/15 02:16:49;;;;;;;47.50;22.10;;;;;;;12.37;78.00;94540.38;5131082;27;20200;-68
2023/10/15 02:19:15;;;;;;;47.13;23.80;;;;;;;12.37;78.46;94548.31;5131184;27;20690;-68
2023/10/15 02:21:49;;;;;;;46.10;22.63;;;;;;;12.33;78.81;94544.53;5131207;27;20380;-68
2023/10/15 02:24:15;;;;;;;50.50;24.40;;;;;;;12.31;78.65;94536.03;5130841;27;20172;-68
2023/10/15 02:26:40;;;;;;;46.57;22.23;;;;;;;12.31;78.78;94545.78;5131124;27;20674;-68
2023/10/15 02:29:07;;;;;;;41.90;21.27;;;;;;;12.32;78.66;94556.13;5131120;27;20670;-68
2023/10/15 02:31:41;;;;;;;44.27;21.30;;;;;;;12.17;78.48;94521.47;5131304;27;20267;-68
2023/10/15 02:34:14;;;;;;;39.07;20.67;;;;;;;12.30;78.85;94544.97;5130400;27;20172;-68
2023/10/15 02:36:40;;;;;;;41.47;18.17;;;;;;;12.32;78.48;94552.66;5130890;27;20204;-69
2023/10/15 02:39:05;;;;;;;38.13;17.20;;;;;;;12.35;78.54;94558.31;5112847;27;20637;-68
2023/10/15 02:41:31;;;;;;;18.63;9.70;;;;;;;12.38;79.04;94557.03;5131096;27;20179;-68
2023/10/15 02:43:56;;;;;;;17.30;7.83;;;;;;;12.30;78.96;94546.81;5112669;27;20321;-68
2023/10/15 02:46:36;;;;;;;17.70;7.33;;;;;;;12.42;78.59;94552.91;5131201;27;20179;-68
2023/10/15 02:49:03;;;;;;;25.50;12.07;;;;;;;12.39;78.19;94554.16;5131248;27;20180;-68
2023/10/15 02:51:28;;;;;;;12.40;5.80;;;;;;;12.42;78.30;94548.44;5131202;27;20960;-69
2023/10/15 02:54:01;;;;;;;14.30;7.37;;;;;;;12.42;78.31;94551.06;5131103;27;20183;-68
2023/10/15 02:56:28;;;;;;;21.03;9.83;;;;;;;12.46;77.75;94546.94;5130759;27;20200;-68
2023/10/15 02:58:54;;;;;;;14.47;8.40;;;;;;;12.42;77.56;94540.50;5130814;27;20784;-69
2023/10/15 03:01:19;;;;;;;17.83;7.27;;;;;;;12.35;77.98;94545.09;5130959;27;20254;-69
2023/10/15 03:03:54;;;;;;;15.17;7.00;;;;;;;12.33;78.20;94541.88;5132947;27;20175;-69
2023/10/15 03:06:28;;;;;;;20.77;8.30;;;;;;;12.30;78.07;94542.34;5134919;27;20179;-68
2023/10/15 03:08:56;;;;;;;13.30;7.43;;;;;;;12.27;78.12;94542.00;5134781;27;20262;-69
2023/10/15 03:11:23;;;;;;;14.53;7.53;;;;;;;12.23;77.98;94539.00;5150110;27;20193;-68
2023/10/15 03:13:53;;;;;;;16.63;7.80;;;;;;;12.15;78.48;94544.63;5155435;27;20178;-69
2023/10/15 03:16:23;;;;;;;16.27;7.83;;;;;;;12.12;78.85;94544.25;5155632;27;20202;-69
2023/10/15 03:18:50;;;;;;;15.17;7.60;;;;;;;12.11;78.77;94537.41;5155594;27;20175;-69
2023/10/15 03:21:38;;;;;;;20.53;7.80;;;;;;;12.07;79.08;94537.03;5155432;27;20654;-69
2023/10/15 03:24:05;;;;;;;10.40;7.00;;;;;;;12.04;78.84;94538.28;5155406;27;20172;-69
2023/10/15 03:26:32;;;;;;;20.43;8.33;;;;;;;11.99;79.19;94538.19;5155426;27;20175;-69
2023/10/15 03:28:58;;;;;;;13.47;7.70;;;;;;;11.98;79.37;94533.94;5155082;27;20337;-69
2023/10/15 03:31:27;;;;;;;17.67;7.87;;;;;;;11.99;79.50;94540.00;5155406;27;20238;-68
2023/10/15 03:34:21;;;;;;;18.63;7.27;;;;;;;12.01;79.47;94537.97;5155162;27;20173;-68
2023/10/15 03:36:50;;;;;;;14.63;7.30;;;;;;;11.99;79.36;94526.81;5154843;27;20211;-68
2023/10/15 03:39:24;;;;;;;14.97;7.10;;;;;;;12.01;79.35;94532.69;5155063;27;20207;-68
2023/10/15 03:42:39;;;;;;;19.97;6.90;;;;;;;12.01;79.44;94537.97;5154999;27;20171;-68
2023/10/15 03:44:44;;;;;;;15.93;7.23;;;;;;;11.91;79.18;94524.53;5146218;27;20188;-68
2023/10/15 03:47:10;;;;;;;15.10;7.37;;;;;;;11.92;79.27;94526.13;5154912;27;20172;-68
2023/10/15 03:49:37;;;;;;;21.23;7.23;;;;;;;11.87;79.21;94524.16;5155301;27;20648;-68
2023/10/15 03:52:14;;;;;;;14.17;6.80;;;;;;;11.82;79.94;94525.88;5155110;27;20180;-69
2023/10/15 03:54:39;;;;;;;10.83;6.13;;;;;;;11.78;80.05;94522.88;5154941;27;20179;-68
2023/10/15 03:57:08;;;;;;;15.00;6.47;;;;;;;11.66;80.29;94514.13;5154785;27;20195;-67
2023/10/15 03:59:52;;;;;;;12.23;6.17;;;;;;;11.70;80.61;94525.81;5154592;27;20711;-68
2023/10/15 04:05:00;;;;;;;9.63;6.37;;;;;;;11.61;80.54;94520.06;5154633;27;20180;-67
2023/10/15 04:07:27;;;;;;;9.43;5.97;;;;;;;11.57;80.68;94516.28;5154589;27;20234;-68
2023/10/15 04:09:52;;;;;;;13.63;5.77;;;;;;;11.54;80.97;94515.91;5154514;27;20183;-67
2023/10/15 04:12:18;;;;;;;10.83;6.50;;;;;;;11.46;81.54;94511.75;5148720;27;20172;-67
2023/10/15 04:14:45;;;;;;;13.87;6.20;;;;;;;11.35;81.83;94494.88;5153425;27;20545;-67
2023/10/15 04:17:11;;;;;;;11.43;6.40;;;;;;;11.47;81.87;94517.84;5154714;27;20203;-67
2023/10/15 04:19:36;;;;;;;7.13;5.03;;;;;;;11.48;81.54;94512.34;5154303;27;20175;-67
2023/10/15 04:22:14;;;;;;;19.30;6.33;;;;;;;11.49;81.64;94513.97;5154411;27;20184;-69
2023/10/15 04:24:47;;;;;;;9.23;6.13;;;;;;;11.48;81.76;94512.34;5135641;27;20490;-68
2023/10/15 04:27:18;;;;;;;18.30;5.77;;;;;;;11.52;81.60;94520.59;5154283;27;20628;-69
2023/10/15 04:29:53;;;;;;;20.00;6.10;;;;;;;11.52;81.25;94517.97;5154346;27;20206;-69
2023/10/15 04:34:53;;;;;;;24.43;6.67;;;;;;;11.53;81.51;94519.56;5133651;27;20175;-69
2023/10/15 04:37:20;;;;;;;17.70;6.23;;;;;;;11.49;81.51;94524.50;5133275;27;20176;-69
2023/10/15 04:39:52;;;;;;;15.90;6.50;;;;;;;11.51;81.68;94517.16;5133396;27;20175;-69
2023/10/15 04:42:25;;;;;;;12.90;6.77;;;;;;;11.49;81.63;94523.69;5133179;27;20172;-69
2023/10/15 04:44:51;;;;;;;13.20;6.70;;;;;;;11.50;81.77;94526.09;5133190;27;20180;-69
2023/10/15 04:47:27;;;;;;;14.93;6.93;;;;;;;11.52;81.39;94528.50;5133284;27;20187;-69
2023/10/15 04:49:57;;;;;;;17.97;7.57;;;;;;;11.55;81.50;94528.88;5133305;27;20172;-69
2023/10/15 04:52:24;;;;;;;16.37;8.83;;;;;;;11.61;81.37;94535.06;5114819;27;20575;-69
2023/10/15 04:54:50;;;;;;;22.30;9.33;;;;;;;11.64;81.27;94535.44;5133262;27;20176;-69
2023/10/15 04:57:16;;;;;;;18.00;10.20;;;;;;;11.67;81.09;94537.63;5132943;27;20180;-69
2023/10/15 04:59:42;;;;;;;18.40;9.73;;;;;;;11.70;80.90;94539.78;5132777;27;20212;-69
2023/10/15 05:02:08;;;;;;;23.17;11.30;;;;;;;11.70;80.89;94542.44;5149166;27;20217;-69
2023/10/15 05:04:33;;;;;;;20.50;12.60;;;;;;;11.65;81.24;94538.88;5153466;27;20734;-69
2023/10/15 05:06:59;;;;;;;23.63;11.83;;;;;;;11.68;81.84;94533.13;5153150;27;20171;-69
2023/10/15 05:09:24;;;;;;;22.47;12.17;;;;;;;11.87;81.63;94536.53;5153360;27;20231;-69
2023/10/15 05:11:53;;;;;;;23.47;11.93;;;;;;;12.39;80.35;94545.44;5153435;27;20184;-69
2023/10/15 05:14:18;;;;;;;22.97;11.47;;;;;;;12.97;77.59;94541.97;5149545;27;20180;-69
2023/10/15 05:16:46;;;;;;;27.10;11.97;;;;;;;13.19;75.80;94530.53;5132326;27;20211;-69
2023/10/15 05:19:16;;;;;;;26.53;11.37;;;;;;;13.47;74.85;94558.03;5132132;27;20191;-69
2023/10/15 05:21:42;;;;;;;18.73;10.80;;;;;;;13.63;73.93;94549.34;5131856;27;20199;-69
2023/10/15 05:24:07;;;;;;;21.47;11.03;;;;;;;13.76;73.29;94546.41;5132274;27;20212;-69
2023/10/15 05:26:33;;;;;;;22.20;10.20;;;;;;;14.03;73.17;94549.25;5132046;27;20206;-69
2023/10/15 05:28:59;;;;;;;28.63;10.27;;;;;;;14.57;71.57;94553.06;5132318;27;20244;-69
2023/10/15 05:31:24;;;;;;;26.53;10.33;;;;;;;15.08;69.63;94553.75;5132085;27;20569;-69
2023/10/15 05:33:50;;;;;;;34.85;10.40;;;;;;;15.41;67.82;94552.81;5131560;27;20241;-69
2023/10/15 05:36:15;;;;;;;30.25;10.65;;;;;;;15.66;66.54;94544.34;5131611;27;20188;-69
2023/10/15 05:38:41;;;;;;;25.00;9.98;;;;;;;16.19;65.75;94549.66;5131574;27;20173;-69
2023/10/15 05:41:06;;;;;;;19.35;9.23;;;;;;;16.84;63.60;94551.22;5131804;27;20632;-69
2023/10/15 05:43:32;;;;;;;16.27;9.43;;;;;;;17.42;62.08;94545.91;5131910;27;20176;-69
2023/10/15 05:45:57;;;;;;;17.92;8.27;;;;;;;18.29;58.71;94545.88;5131690;27;20606;-69
2023/10/15 05:48:23;;;;;;;20.20;7.80;;;;;;;19.57;55.87;94545.38;5131437;27;20251;-69
2023/10/15 05:50:49;;;;;;;29.20;7.63;;;;;;;21.04;52.05;94548.88;5131582;27;20217;-69
2023/10/15 05:53:16;;;;;;;22.55;8.15;;;;;;;22.25;47.54;94548.50;5131327;27;20172;-69
2023/10/15 05:55:41;;;;;;;19.63;7.72;;;;;;;22.74;45.88;94545.31;5131537;27;20192;-69
2023/10/15 05:58:08;;;;;;;22.35;8.40;;;;;;;22.87;45.67;94547.25;5131369;27;20667;-69
2023/10/15 06:00:39;;;;;;;18.35;8.52;;;;;;;23.17;44.76;94554.78;5131505;27;20196;-70
2023/10/15 06:03:05;;;;;;;16.15;7.80;;;;;;;23.49;43.45;94545.84;5131537;27;20176;-70
2023/10/15 06:05:31;;;;;;;14.70;7.75;;;;;;;23.99;42.54;94553.97;5131136;27;20525;-70
2023/10/15 06:07:56;;;;;;;15.65;7.70;;;;;;;24.57;41.26;94559.38;5131307;27;20176;-70
2023/10/15 06:10:22;;;;;;;18.05;7.65;;;;;;;24.71;41.00;94556.66;5131197;27;20164;-69
2023/10/15 06:12:48;;;;;;;15.93;8.30;;;;;;;25.31;39.61;94562.41;5131262;27;20171;-68
2023/10/15 06:15:15;;;;;;;16.50;7.15;;;;;;;26.10;37.71;94556.19;5131310;27;20200;-69
2023/10/15 06:17:40;;;;;;;15.00;7.53;;;;;;;27.18;36.05;94550.56;5131006;27;20195;-70
2023/10/15 06:20:12;;;;;;;29.05;7.22;;;;;;;28.35;33.50;94552.59;5131277;27;20653;-69
2023/10/15 06:22:49;;;;;;;13.55;7.10;;;;;;;29.51;31.62;94557.88;5130993;27;20180;-69
2023/10/15 06:25:18;;;;;;;17.02;8.13;;;;;;;30.54;29.99;94563.06;5130657;27;20168;-69
2023/10/15 06:27:44;;;;;;;18.30;8.23;;;;;;;31.36;28.23;94547.91;5130753;27;20180;-70
2023/10/15 06:30:20;;;;;;;11.95;6.95;;;;;;;31.97;27.15;94539.28;5130940;27;20569;-70
2023/10/15 06:32:49;;;;;;;13.13;6.90;;;;;;;32.61;25.82;94546.16;5131017;27;20180;-70
2023/10/15 06:35:20;;;;;;;16.92;7.75;;;;;;;33.11;25.04;94548.00;5112643;27;20609;-70
2023/10/15 06:37:46;;;;;;;12.10;7.00;;;;;;;33.68;24.60;94549.81;5129923;27;20183;-70
2023/10/15 06:40:13;;;;;;;14.77;6.90;;;;;;;34.24;23.59;94553.88;5130884;27;20172;-70
2023/10/15 06:42:39;;;;;;;19.77;7.55;;;;;;;34.56;22.79;94546.88;5129932;27;20648;-70
2023/10/15 06:45:08;;;;;;;12.60;7.25;;;;;;;34.76;22.45;94548.34;5110144;28;20177;-70
2023/10/15 06:47:37;;;;;;;14.32;7.80;;;;;;;34.78;22.37;94546.00;5110115;28;20230;-70
2023/10/15 06:50:07;;;;;;;17.90;7.25;;;;;;;34.90;22.31;94547.72;5116633;27;20572;-70
2023/10/15 06:52:38;;;;;;;13.18;7.43;;;;;;;35.03;22.17;94542.81;5130644;27;20263;-70
2023/10/15 06:55:05;;;;;;;14.85;7.10;;;;;;;34.56;22.00;94527.72;5129387;28;20590;-71
2023/10/15 06:57:30;;;;;;;17.35;7.28;;;;;;;33.63;23.11;94533.75;5130696;28;20668;-70
2023/10/15 06:59:56;;;;;;;16.33;8.32;;;;;;;33.15;24.70;94524.28;5130270;28;20261;-70
2023/10/15 07:02:21;;;;;;;16.88;8.07;;;;;;;33.02;24.47;94522.06;5129547;28;20244;-70
2023/10/15 07:04:46;;;;;;;19.27;8.25;;;;;;;32.37;24.69;94517.25;5129572;28;20221;-70
2023/10/15 07:07:13;;;;;;;20.88;7.22;;;;;;;31.15;26.20;94503.78;5128317;28;20243;-70
2023/10/15 07:09:40;;;;;;;21.30;7.88;;;;;;;30.67;26.71;94513.78;5129500;28;20581;-70
2023/10/15 07:12:06;;;;;;;15.43;7.55;;;;;;;29.84;28.23;94502.72;5129242;28;20180;-69
2023/10/15 07:14:31;;;;;;;17.10;7.10;;;;;;;29.73;28.99;94505.09;5116010;28;20175;-69
2023/10/15 07:16:57;;;;;;;15.82;7.60;;;;;;;29.39;29.30;94503.63;5109902;28;20665;-70
2023/10/15 07:19:23;;;;;;;20.90;7.93;;;;;;;28.67;30.26;94488.72;5109803;28;20311;-70
2023/10/15 07:21:48;;;;;;;14.48;7.90;;;;;;;28.75;30.60;94487.84;5105992;28;20185;-69
2023/10/15 07:24:13;;;;;;;15.85;8.93;;;;;;;28.44;31.49;94496.44;5107152;28;20165;-69
2023/10/15 07:26:40;;;;;;;12.85;6.50;;;;;;;28.23;31.36;94490.22;5125518;28;20632;-70
2023/10/15 07:29:06;;;;;;;17.95;6.93;;;;;;;27.77;32.39;94481.13;5112727;28;20188;-68
2023/10/15 07:31:32;;;;;;;12.80;6.63;;;;;;;27.81;32.10;94483.19;5118898;28;20168;-69
2023/10/15 07:34:00;;;;;;;13.70;6.47;;;;;;;27.40;32.31;94495.47;5116048;28;20242;-70
2023/10/15 07:36:25;;;;;;;14.55;7.25;;;;;;;27.07;33.31;94484.47;5123739;28;20284;-69
2023/10/15 07:38:51;;;;;;;17.02;6.47;;;;;;;26.90;33.87;94482.56;5111560;28;20287;-69
2023/10/15 07:41:16;;;;;;;16.33;7.35;;;;;;;26.58;34.40;94481.22;5122031;28;20188;-69
2023/10/15 07:43:43;;;;;;;17.15;5.85;;;;;;;26.41;34.12;94485.84;5117824;28;20367;-69
2023/10/15 07:46:08;;;;;;;17.40;6.63;;;;;;;26.07;35.07;94486.63;5114387;28;20663;-69
2023/10/15 07:48:35;;;;;;;15.45;5.97;;;;;;;25.92;35.98;94477.91;5124964;28;20235;-69
2023/10/15 07:51:00;;;;;;;13.77;6.13;;;;;;;25.76;35.66;94482.16;5115791;27;20577;-69
2023/10/15 07:53:25;;;;;;;17.45;5.47;;;;;;;25.57;35.99;94478.94;5132571;27;20179;-69
2023/10/15 07:55:51;;;;;;;11.02;6.03;;;;;;;25.40;37.03;94470.81;5127525;27;20204;-69
2023/10/15 07:58:16;;;;;;;17.88;6.65;;;;;;;25.23;37.52;94473.44;5112462;27;20180;-69
2023/10/15 08:00:42;;;;;;;14.18;5.60;;;;;;;25.14;37.22;94471.50;5118307;27;20172;-69
2023/10/15 08:03:07;;;;;;;19.23;6.65;;;;;;;25.13;38.28;94474.50;5109816;28;20173;-69
2023/10/15 08:05:34;;;;;;;19.05;6.32;;;;;;;25.26;37.49;94473.59;5110660;28;20608;-69
2023/10/15 08:08:00;;;;;;;20.60;6.68;;;;;;;25.42;37.39;94466.69;5109389;28;20199;-69
2023/10/15 08:10:31;;;;;;;12.55;6.07;;;;;;;25.43;36.53;94470.16;5111463;28;20630;-69
2023/10/15 08:12:58;;;;;;;18.13;6.68;;;;;;;24.95;37.50;94465.56;5108180;28;20184;-69
2023/10/15 08:15:24;;;;;;;13.10;5.40;;;;;;;25.13;38.84;94463.72;5109502;28;20245;-70
2023/10/15 08:17:50;;;;;;;13.82;6.07;;;;;;;25.30;37.65;94460.31;5111273;28;20176;-70
2023/10/15 08:20:15;;;;;;;16.98;6.05;;;;;;;25.36;37.80;94456.34;5110285;28;20226;-69
2023/10/15 08:22:41;;;;;;;10.57;5.70;;;;;;;25.17;37.15;94451.22;5110048;28;20176;-70
2023/10/15 08:25:14;;;;;;;13.38;5.50;;;;;;;25.13;37.46;94448.38;5110023;28;20180;-68
2023/10/15 08:27:45;;;;;;;18.13;5.80;;;;;;;24.79;38.57;94445.50;5109018;28;20172;-69
2023/10/15 08:30:12;;;;;;;12.05;6.38;;;;;;;24.69;39.74;94445.75;5111162;28;20177;-67
2023/10/15 08:32:47;;;;;;;10.75;5.57;;;;;;;24.89;38.92;94429.06;5110730;28;20176;-69
2023/10/15 08:35:14;;;;;;;14.30;5.88;;;;;;;25.13;38.07;94409.84;5107544;28;20230;-68
2023/10/15 08:37:41;;;;;;;8.75;5.30;;;;;;;25.41;38.06;94437.34;5111566;28;20185;-69
2023/10/15 08:40:07;;;;;;;10.63;5.40;;;;;;;25.58;37.86;94437.38;5109831;28;20180;-69
2023/10/15 08:42:42;;;;;;;8.95;4.80;;;;;;;25.55;37.17;94432.59;5108748;28;20964;-68
2023/10/15 08:45:08;;;;;;;13.70;6.32;;;;;;;25.71;37.67;94436.47;5110254;28;20177;-69
2023/10/15 08:47:35;;;;;;;11.63;4.55;;;;;;;25.76;36.74;94433.63;5108600;28;20184;-69
2023/10/15 08:50:02;;;;;;;10.10;4.80;;;;;;;25.44;37.12;94428.63;5108612;28;20169;-68
2023/10/15 08:52:28;;;;;;;8.40;4.38;;;;;;;25.27;37.33;94429.38;5104643;28;20174;-70
2023/10/15 08:54:54;;;;;;;7.55;4.18;;;;;;;25.31;37.89;94416.06;5109110;28;20185;-69
2023/10/15 08:57:21;;;;;;;12.77;4.75;;;;;;;25.31;37.49;94418.78;5108000;28;20197;-68
2023/10/15 08:59:48;;;;;;;12.27;4.93;;;;;;;25.21;38.06;94419.84;5106370;28;20605;-69
2023/10/15 09:02:16;;;;;;;13.30;5.90;;;;;;;25.25;37.65;94426.22;5099971;28;20669;-69
2023/10/15 09:04:45;;;;;;;7.22;4.85;;;;;;;25.32;37.31;94407.69;5109342;28;20224;-69
2023/10/15 09:07:12;;;;;;;10.55;4.70;;;;;;;25.62;37.73;94422.19;5107975;28;20246;-69
2023/10/15 09:09:38;;;;;;;18.85;5.22;;;;;;;25.37;37.23;94412.13;5109708;28;20188;-69
2023/10/15 09:12:06;;;;;;;11.90;4.47;;;;;;;24.81;38.47;94411.78;5107819;28;20518;-69
2023/10/15 09:14:45;;;;;;;23.88;5.25;;;;;;;24.98;39.45;94405.69;5107294;28;20169;-68
2023/10/15 09:17:16;;;;;;;7.47;4.05;;;;;;;25.24;38.49;94405.75;5111032;28;20200;-69
2023/10/15 09:19:43;;;;;;;13.60;5.07;;;;;;;25.00;38.56;94398.06;5110147;28;20181;-69
2023/10/15 09:22:16;;;;;;;12.45;4.82;;;;;;;25.17;38.34;94402.72;5110739;28;20192;-69
2023/10/15 09:24:45;;;;;;;6.05;4.18;;;;;;;25.08;38.26;94407.31;5108003;28;21577;-69
2023/10/15 09:27:12;;;;;;;12.45;5.18;;;;;;;25.23;38.24;94382.63;5104930;28;20172;-68
2023/10/15 09:29:38;;;;;;;15.25;5.35;;;;;;;25.55;38.25;94394.84;5106102;28;20188;-68
2023/10/15 09:32:05;;;;;;;11.45;4.22;;;;;;;25.62;37.24;94389.03;5105326;28;20606;-69
2023/10/15 09:34:32;;;;;;;9.55;4.93;;;;;;;25.60;37.46;94375.09;5106229;28;20180;-69
2023/10/15 09:37:00;;;;;;;7.85;4.50;;;;;;;25.42;37.76;94385.03;5106089;28;20200;-69
2023/10/15 09:39:28;;;;;;;12.18;4.60;;;;;;;25.29;38.73;94359.00;5105833;28;20253;-70
2023/10/15 09:41:55;;;;;;;8.23;4.20;;;;;;;25.51;38.47;94377.75;5106201;28;20184;-69
2023/10/15 09:44:20;;;;;;;9.02;4.60;;;;;;;25.36;38.39;94356.63;5105969;28;20319;-69
2023/10/15 09:46:47;;;;;;;13.60;4.63;;;;;;;25.30;38.95;94365.97;5108143;28;20755;-69
2023/10/15 09:49:13;;;;;;;8.43;4.32;;;;;;;25.36;39.29;94376.28;5090073;28;20260;-69
2023/10/15 09:51:40;;;;;;;10.40;3.97;;;;;;;25.48;39.03;94365.69;5103105;28;20261;-69
2023/10/15 09:54:14;;;;;;;9.75;4.07;;;;;;;25.61;39.57;94361.25;5106118;28;20816;-69
2023/10/15 09:56:41;;;;;;;26.50;4.68;;;;;;;25.70;38.50;94359.34;5106829;28;20230;-69
2023/10/15 09:59:10;;;;;;;13.77;4.43;;;;;;;25.68;38.49;94356.22;5106648;28;20311;-69
2023/10/15 10:01:46;;;;;;;12.23;4.55;;;;;;;25.68;38.30;94345.44;5108692;28;20201;-69
2023/10/15 10:04:40;;;;;;;13.18;4.18;;;;;;;25.69;38.92;94355.06;5106547;28;20238;-69
2023/10/15 10:07:33;;;;;;;9.50;5.00;;;;;;;25.74;39.13;94343.34;5108350;28;20234;-68
2023/10/15 10:10:17;;;;;;;11.20;4.35;;;;;;;25.72;38.46;94340.16;5107183;28;20254;-68
2023/10/15 10:13:15;;;;;;;8.10;3.83;;;;;;;25.66;38.84;94336.84;5107123;28;20264;-68
2023/10/15 10:15:52;;;;;;;5.60;3.50;;;;;;;25.73;38.60;94329.06;5090447;27;20229;-70
2023/10/15 10:18:18;;;;;;;9.00;3.70;;;;;;;25.67;38.75;94327.66;5108449;28;20633;-70
2023/10/15 10:20:48;;;;;;;10.35;4.00;;;;;;;25.66;39.71;94328.75;5108164;28;20169;-70
2023/10/15 10:23:15;;;;;;;9.75;4.13;;;;;;;25.46;39.25;94288.94;5108477;28;20204;-69
2023/10/15 10:25:45;;;;;;;7.30;3.75;;;;;;;25.65;39.44;94312.91;5108555;28;20161;-69
2023/10/15 10:28:15;;;;;;;9.00;4.40;;;;;;;25.64;39.06;94305.91;5107933;28;20198;-70
2023/10/15 10:30:58;;;;;;;17.77;4.07;;;;;;;25.54;38.91;94290.81;5108137;28;20216;-70
2023/10/15 10:33:45;;;;;;;8.98;3.83;;;;;;;25.55;39.13;94297.81;5108771;28;20176;-70
2023/10/15 10:36:17;;;;;;;13.15;3.83;;;;;;;25.46;38.60;94303.19;5107568;28;20193;-70
2023/10/15 10:38:43;;;;;;;12.48;3.58;;;;;;;25.26;39.43;94279.56;5107175;28;20673;-70
2023/10/15 10:41:15;;;;;;;5.70;3.10;;;;;;;25.42;38.50;94298.78;5105228;28;20204;-69
2023/10/15 10:43:45;;;;;;;6.50;3.50;;;;;;;25.44;39.15;94291.13;5104296;28;20288;-70
2023/10/15 10:46:24;;;;;;;16.30;3.88;;;;;;;25.48;38.26;94290.19;5106779;28;20173;-70
2023/10/15 10:49:16;;;;;;;9.88;3.15;;;;;;;25.56;38.66;94285.91;5108193;28;20177;-70
2023/10/15 10:52:02;;;;;;;18.27;4.45;;;;;;;25.62;38.90;94273.88;5101329;28;20685;-70
2023/10/15 10:54:28;;;;;;;11.85;4.65;;;;;;;25.62;37.90;94273.06;5108441;28;20173;-69
2023/10/15 10:56:55;;;;;;;8.20;3.28;;;;;;;25.62;38.64;94265.78;5107732;28;20685;-69
2023/10/15 10:59:21;;;;;;;10.30;3.65;;;;;;;25.49;38.18;94239.78;5108402;28;20215;-69
2023/10/15 11:01:46;;;;;;;14.25;5.22;;;;;;;25.64;37.95;94263.56;5108745;28;20185;-69
2023/10/15 11:04:18;;;;;;;12.23;4.03;;;;;;;25.54;38.11;94235.00;5107944;28;20846;-69
2023/10/15 11:06:48;;;;;;;12.05;3.60;;;;;;;25.70;37.40;94254.19;5108385;28;20207;-69
2023/10/15 11:09:19;;;;;;;11.73;4.53;;;;;;;25.66;37.67;94245.16;5108697;28;20960;-69
2023/10/15 11:11:46;;;;;;;12.38;3.88;;;;;;;25.72;38.62;94251.97;5107731;28;20176;-70
2023/10/15 11:14:12;;;;;;;12.50;4.57;;;;;;;25.76;37.92;94249.44;5108459;28;20238;-70
2023/10/15 11:16:40;;;;;;;8.43;4.15;;;;;;;25.69;37.36;94241.03;5107998;28;20696;-69
2023/10/15 11:19:21;;;;;;;6.38;3.47;;;;;;;25.69;37.65;94241.03;5088774;28;20695;-70
2023/10/15 11:21:48;;;;;;;8.98;4.05;;;;;;;25.69;37.80;94244.50;5108385;28;20168;-70
2023/10/15 11:24:14;;;;;;;11.75;4.32;;;;;;;25.70;38.21;94237.22;5091062;28;20642;-70
2023/10/15 11:26:44;;;;;;;16.50;4.75;;;;;;;25.76;37.81;94233.25;5111615;28;20192;-70
2023/10/15 11:29:11;;;;;;;10.60;3.95;;;;;;;25.81;37.34;94228.47;5112454;28;20200;-70
2023/10/15 11:31:37;;;;;;;12.60;4.10;;;;;;;25.82;37.34;94232.75;5111983;28;20177;-70
2023/10/15 11:34:04;;;;;;;8.07;3.38;;;;;;;25.84;36.88;94219.75;5111556;28;20215;-71
2023/10/15 11:36:35;;;;;;;26.08;5.03;;;;;;;25.83;36.67;94220.06;5112107;28;20203;-70
2023/10/15 11:39:08;;;;;;;14.82;4.45;;;;;;;25.81;36.69;94220.38;5112002;28;20723;-70
2023/10/15 11:41:34;;;;;;;17.48;5.03;;;;;;;25.72;37.18;94206.13;5092340;28;20615;-70